sensor_id;sensor_type;location;lat;lon;timestamp;temperature;humidity
69054;DHT22;56125;52.242;4.756;2024-01-30T00:02:32;18.00;47.10
69054;DHT22;56125;52.242;4.756;2024-01-30T00:07:33;18.60;47.50
69054;DHT22;56125;52.242;4.756;2024-01-30T00:12:34;18.00;47.20
69054;DHT22;56125;52.242;4.756;2024-01-30T00:17:36;18.00;47.20
69054;DHT22;56125;52.242;4.756;2024-01-30T00:22:37;18.00;47.20
69054;DHT22;56125;52.242;4.756;2024-01-30T00:27:39;18.00;47.40
69054;DHT22;56125;52.242;4.756;2024-01-30T00:32:40;18.00;47.40
69054;DHT22;56125;52.242;4.756;2024-01-30T00:37:41;17.90;47.30
69054;DHT22;56125;52.242;4.756;2024-01-30T00:42:42;17.90;48.50
69054;DHT22;56125;52.242;4.756;2024-01-30T00:47:44;17.90;47.40
69054;DHT22;56125;52.242;4.756;2024-01-30T00:52:45;17.90;47.60
69054;DHT22;56125;52.242;4.756;2024-01-30T00:57:46;17.90;47.50
69054;DHT22;56125;52.242;4.756;2024-01-30T01:02:48;17.90;47.60
69054;DHT22;56125;52.242;4.756;2024-01-30T01:07:49;17.90;47.80
69054;DHT22;56125;52.242;4.756;2024-01-30T01:12:50;17.90;47.80
69054;DHT22;56125;52.242;4.756;2024-01-30T01:17:51;17.90;47.90
69054;DHT22;56125;52.242;4.756;2024-01-30T01:22:52;17.90;47.90
69054;DHT22;56125;52.242;4.756;2024-01-30T01:27:53;17.90;48.10
69054;DHT22;56125;52.242;4.756;2024-01-30T01:32:54;17.80;48.00
69054;DHT22;56125;52.242;4.756;2024-01-30T01:37:55;17.90;48.20
69054;DHT22;56125;52.242;4.756;2024-01-30T01:42:57;17.80;48.00
69054;DHT22;56125;52.242;4.756;2024-01-30T01:47:58;17.90;48.00
69054;DHT22;56125;52.242;4.756;2024-01-30T01:53:00;17.80;47.90
69054;DHT22;56125;52.242;4.756;2024-01-30T01:58:01;17.80;47.90
69054;DHT22;56125;52.242;4.756;2024-01-30T02:03:04;17.90;47.00
69054;DHT22;56125;52.242;4.756;2024-01-30T02:08:06;17.90;47.80
69054;DHT22;56125;52.242;4.756;2024-01-30T02:13:09;17.90;47.90
69054;DHT22;56125;52.242;4.756;2024-01-30T02:18:10;17.90;47.80
69054;DHT22;56125;52.242;4.756;2024-01-30T02:23:12;17.90;47.80
69054;DHT22;56125;52.242;4.756;2024-01-30T02:28:15;17.90;47.90
69054;DHT22;56125;52.242;4.756;2024-01-30T02:33:16;17.90;47.80
69054;DHT22;56125;52.242;4.756;2024-01-30T02:38:18;17.90;47.80
69054;DHT22;56125;52.242;4.756;2024-01-30T02:43:19;17.90;47.80
69054;DHT22;56125;52.242;4.756;2024-01-30T02:48:20;17.80;47.80
69054;DHT22;56125;52.242;4.756;2024-01-30T02:53:21;17.90;47.80
69054;DHT22;56125;52.242;4.756;2024-01-30T02:58:22;17.90;47.80
69054;DHT22;56125;52.242;4.756;2024-01-30T03:03:23;17.90;47.80
69054;DHT22;56125;52.242;4.756;2024-01-30T03:08:24;17.90;47.90
69054;DHT22;56125;52.242;4.756;2024-01-30T03:13:25;17.90;47.90
69054;DHT22;56125;52.242;4.756;2024-01-30T03:18:26;17.90;47.90
69054;DHT22;56125;52.242;4.756;2024-01-30T03:23:28;17.80;47.80
69054;DHT22;56125;52.242;4.756;2024-01-30T03:28:29;17.90;47.80
69054;DHT22;56125;52.242;4.756;2024-01-30T03:33:30;17.90;47.80
69054;DHT22;56125;52.242;4.756;2024-01-30T03:38:31;17.90;48.20
69054;DHT22;56125;52.242;4.756;2024-01-30T03:43:33;17.90;47.70
69054;DHT22;56125;52.242;4.756;2024-01-30T03:48:34;18.00;47.90
69054;DHT22;56125;52.242;4.756;2024-01-30T03:53:35;18.00;47.60
69054;DHT22;56125;52.242;4.756;2024-01-30T03:58:36;18.00;47.80
69054;DHT22;56125;52.242;4.756;2024-01-30T04:03:37;18.00;48.50
69054;DHT22;56125;52.242;4.756;2024-01-30T04:08:38;18.00;48.00
69054;DHT22;56125;52.242;4.756;2024-01-30T04:13:39;18.00;47.90
69054;DHT22;56125;52.242;4.756;2024-01-30T04:18:41;18.10;48.00
69054;DHT22;56125;52.242;4.756;2024-01-30T04:23:42;18.00;47.90
69054;DHT22;56125;52.242;4.756;2024-01-30T04:28:44;18.10;48.00
69054;DHT22;56125;52.242;4.756;2024-01-30T04:33:45;18.10;47.80
69054;DHT22;56125;52.242;4.756;2024-01-30T04:38:46;18.10;47.90
69054;DHT22;56125;52.242;4.756;2024-01-30T04:43:47;18.10;47.80
69054;DHT22;56125;52.242;4.756;2024-01-30T04:48:48;18.20;47.90
69054;DHT22;56125;52.242;4.756;2024-01-30T04:53:50;18.20;47.80
69054;DHT22;56125;52.242;4.756;2024-01-30T04:58:51;18.20;47.80
69054;DHT22;56125;52.242;4.756;2024-01-30T05:03:52;18.20;47.80
69054;DHT22;56125;52.242;4.756;2024-01-30T05:08:53;18.20;47.80
69054;DHT22;56125;52.242;4.756;2024-01-30T05:13:54;18.20;47.80
69054;DHT22;56125;52.242;4.756;2024-01-30T05:18:55;18.30;48.00
69054;DHT22;56125;52.242;4.756;2024-01-30T05:23:57;18.20;47.80
69054;DHT22;56125;52.242;4.756;2024-01-30T05:28:58;18.30;48.00
69054;DHT22;56125;52.242;4.756;2024-01-30T05:33:59;18.30;48.20
69054;DHT22;56125;52.242;4.756;2024-01-30T05:39:00;18.30;48.30
69054;DHT22;56125;52.242;4.756;2024-01-30T05:44:02;18.40;48.40
69054;DHT22;56125;52.242;4.756;2024-01-30T05:49:03;18.40;48.30
69054;DHT22;56125;52.242;4.756;2024-01-30T05:54:04;18.40;47.90
69054;DHT22;56125;52.242;4.756;2024-01-30T05:59:05;18.50;47.80
69054;DHT22;56125;52.242;4.756;2024-01-30T06:04:06;18.50;47.60
69054;DHT22;56125;52.242;4.756;2024-01-30T06:09:07;18.60;47.60
69054;DHT22;56125;52.242;4.756;2024-01-30T06:14:13;18.60;47.40
69054;DHT22;56125;52.242;4.756;2024-01-30T06:19:14;18.70;47.40
69054;DHT22;56125;52.242;4.756;2024-01-30T06:24:16;18.60;47.40
69054;DHT22;56125;52.242;4.756;2024-01-30T06:29:17;18.70;47.50
69054;DHT22;56125;52.242;4.756;2024-01-30T06:34:18;18.70;47.40
69054;DHT22;56125;52.242;4.756;2024-01-30T06:39:20;18.70;47.40
69054;DHT22;56125;52.242;4.756;2024-01-30T06:44:21;19.10;47.60
69054;DHT22;56125;52.242;4.756;2024-01-30T06:49:22;18.70;47.40
69054;DHT22;56125;52.242;4.756;2024-01-30T06:54:23;18.70;47.40
69054;DHT22;56125;52.242;4.756;2024-01-30T06:59:25;18.70;47.40
69054;DHT22;56125;52.242;4.756;2024-01-30T07:04:26;18.60;47.40
69054;DHT22;56125;52.242;4.756;2024-01-30T07:09:27;18.60;47.40
69054;DHT22;56125;52.242;4.756;2024-01-30T07:14:28;18.60;47.50
69054;DHT22;56125;52.242;4.756;2024-01-30T07:19:29;18.60;47.50
69054;DHT22;56125;52.242;4.756;2024-01-30T07:24:30;18.60;47.50
69054;DHT22;56125;52.242;4.756;2024-01-30T07:29:31;18.60;47.60
69054;DHT22;56125;52.242;4.756;2024-01-30T07:34:32;18.60;47.60
69054;DHT22;56125;52.242;4.756;2024-01-30T07:39:33;18.60;47.70
69054;DHT22;56125;52.242;4.756;2024-01-30T07:44:34;18.60;47.60
69054;DHT22;56125;52.242;4.756;2024-01-30T07:49:36;18.60;47.70
69054;DHT22;56125;52.242;4.756;2024-01-30T07:54:49;18.60;47.70
69054;DHT22;56125;52.242;4.756;2024-01-30T07:59:51;18.60;47.80
69054;DHT22;56125;52.242;4.756;2024-01-30T08:04:52;18.60;47.80
69054;DHT22;56125;52.242;4.756;2024-01-30T08:09:53;18.60;47.80
69054;DHT22;56125;52.242;4.756;2024-01-30T08:14:54;18.60;47.90
69054;DHT22;56125;52.242;4.756;2024-01-30T08:19:55;18.50;47.80
69054;DHT22;56125;52.242;4.756;2024-01-30T08:24:56;18.50;47.90
69054;DHT22;56125;52.242;4.756;2024-01-30T08:29:57;18.50;48.00
69054;DHT22;56125;52.242;4.756;2024-01-30T08:34:58;18.50;48.00
69054;DHT22;56125;52.242;4.756;2024-01-30T08:39:59;18.50;48.10
69054;DHT22;56125;52.242;4.756;2024-01-30T08:45:00;18.50;48.20
69054;DHT22;56125;52.242;4.756;2024-01-30T08:50:02;18.50;48.30
69054;DHT22;56125;52.242;4.756;2024-01-30T08:55:03;18.50;48.40
69054;DHT22;56125;52.242;4.756;2024-01-30T09:00:05;18.50;48.50
69054;DHT22;56125;52.242;4.756;2024-01-30T09:05:09;18.50;48.50
69054;DHT22;56125;52.242;4.756;2024-01-30T09:10:10;18.50;48.60
69054;DHT22;56125;52.242;4.756;2024-01-30T09:15:11;18.60;48.80
69054;DHT22;56125;52.242;4.756;2024-01-30T09:20:12;18.50;49.10
69054;DHT22;56125;52.242;4.756;2024-01-30T09:25:14;17.70;48.20
69054;DHT22;56125;52.242;4.756;2024-01-30T09:30:15;18.50;48.80
69054;DHT22;56125;52.242;4.756;2024-01-30T09:35:16;18.50;48.80
69054;DHT22;56125;52.242;4.756;2024-01-30T09:40:17;18.50;48.70
69054;DHT22;56125;52.242;4.756;2024-01-30T09:45:23;18.00;48.40
69054;DHT22;56125;52.242;4.756;2024-01-30T09:50:24;18.50;48.70
69054;DHT22;56125;52.242;4.756;2024-01-30T09:55:26;18.60;48.90
69054;DHT22;56125;52.242;4.756;2024-01-30T10:00:27;18.80;49.00
69054;DHT22;56125;52.242;4.756;2024-01-30T10:05:31;18.40;48.70
69054;DHT22;56125;52.242;4.756;2024-01-30T10:10:35;18.40;48.70
69054;DHT22;56125;52.242;4.756;2024-01-30T10:15:37;18.40;48.80
69054;DHT22;56125;52.242;4.756;2024-01-30T10:20:39;18.30;49.70
69054;DHT22;56125;52.242;4.756;2024-01-30T10:25:40;18.30;48.70
69054;DHT22;56125;52.242;4.756;2024-01-30T10:30:42;18.30;48.60
69054;DHT22;56125;52.242;4.756;2024-01-30T10:35:43;18.30;48.70
69054;DHT22;56125;52.242;4.756;2024-01-30T10:40:45;18.20;48.60
69054;DHT22;56125;52.242;4.756;2024-01-30T10:45:49;18.20;48.60
69054;DHT22;56125;52.242;4.756;2024-01-30T10:50:55;18.20;48.60
69054;DHT22;56125;52.242;4.756;2024-01-30T10:55:57;18.20;48.60
69054;DHT22;56125;52.242;4.756;2024-01-30T11:01:00;18.20;48.60
69054;DHT22;56125;52.242;4.756;2024-01-30T11:06:02;18.30;48.70
69054;DHT22;56125;52.242;4.756;2024-01-30T11:11:09;18.40;48.80
69054;DHT22;56125;52.242;4.756;2024-01-30T11:16:11;18.20;48.70
69054;DHT22;56125;52.242;4.756;2024-01-30T11:21:13;18.20;48.60
69054;DHT22;56125;52.242;4.756;2024-01-30T11:26:14;18.20;48.70
69054;DHT22;56125;52.242;4.756;2024-01-30T11:31:18;18.20;48.90
69054;DHT22;56125;52.242;4.756;2024-01-30T11:36:25;18.40;49.10
69054;DHT22;56125;52.242;4.756;2024-01-30T11:41:26;18.90;48.10
69054;DHT22;56125;52.242;4.756;2024-01-30T11:46:28;19.40;47.70
69054;DHT22;56125;52.242;4.756;2024-01-30T11:51:30;19.80;46.70
69054;DHT22;56125;52.242;4.756;2024-01-30T11:56:32;20.10;46.00
69054;DHT22;56125;52.242;4.756;2024-01-30T12:01:33;20.10;46.10
69054;DHT22;56125;52.242;4.756;2024-01-30T12:06:34;20.10;46.00
69054;DHT22;56125;52.242;4.756;2024-01-30T12:11:45;20.00;46.10
69054;DHT22;56125;52.242;4.756;2024-01-30T12:16:50;20.00;46.50
69054;DHT22;56125;52.242;4.756;2024-01-30T12:21:57;20.10;46.50
69054;DHT22;56125;52.242;4.756;2024-01-30T12:27:00;20.10;46.50
69054;DHT22;56125;52.242;4.756;2024-01-30T12:32:01;20.10;46.40
69054;DHT22;56125;52.242;4.756;2024-01-30T12:37:02;20.10;46.50
69054;DHT22;56125;52.242;4.756;2024-01-30T12:42:03;20.20;46.50
69054;DHT22;56125;52.242;4.756;2024-01-30T12:47:05;20.20;46.40
69054;DHT22;56125;52.242;4.756;2024-01-30T12:52:06;20.20;46.50
69054;DHT22;56125;52.242;4.756;2024-01-30T12:57:07;20.30;46.50
69054;DHT22;56125;52.242;4.756;2024-01-30T13:02:08;20.30;46.40
69054;DHT22;56125;52.242;4.756;2024-01-30T13:07:09;20.30;46.50
69054;DHT22;56125;52.242;4.756;2024-01-30T13:12:11;20.40;46.50
69054;DHT22;56125;52.242;4.756;2024-01-30T13:17:12;20.40;46.50
69054;DHT22;56125;52.242;4.756;2024-01-30T13:22:13;20.40;46.50
69054;DHT22;56125;52.242;4.756;2024-01-30T13:27:14;20.40;46.60
69054;DHT22;56125;52.242;4.756;2024-01-30T13:32:15;20.40;46.50
69054;DHT22;56125;52.242;4.756;2024-01-30T13:37:17;20.40;46.50
69054;DHT22;56125;52.242;4.756;2024-01-30T13:42:18;20.40;46.70
69054;DHT22;56125;52.242;4.756;2024-01-30T13:47:19;20.40;46.50
69054;DHT22;56125;52.242;4.756;2024-01-30T13:52:22;20.40;46.40
69054;DHT22;56125;52.242;4.756;2024-01-30T13:57:23;20.50;46.50
69054;DHT22;56125;52.242;4.756;2024-01-30T14:02:24;20.40;46.60
69054;DHT22;56125;52.242;4.756;2024-01-30T14:07:25;20.20;46.60
69054;DHT22;56125;52.242;4.756;2024-01-30T14:12:26;20.10;46.70
69054;DHT22;56125;52.242;4.756;2024-01-30T14:17:27;19.90;46.80
69054;DHT22;56125;52.242;4.756;2024-01-30T14:22:28;19.80;46.90
69054;DHT22;56125;52.242;4.756;2024-01-30T14:27:30;19.70;47.00
69054;DHT22;56125;52.242;4.756;2024-01-30T14:32:31;19.70;47.10
69054;DHT22;56125;52.242;4.756;2024-01-30T14:37:32;19.60;47.20
69054;DHT22;56125;52.242;4.756;2024-01-30T14:42:34;19.60;47.30
69054;DHT22;56125;52.242;4.756;2024-01-30T14:47:35;19.50;47.20
69054;DHT22;56125;52.242;4.756;2024-01-30T14:52:37;19.50;47.20
69054;DHT22;56125;52.242;4.756;2024-01-30T14:57:40;19.40;47.20
69054;DHT22;56125;52.242;4.756;2024-01-30T15:02:43;19.40;48.30
69054;DHT22;56125;52.242;4.756;2024-01-30T15:07:45;19.40;47.40
69054;DHT22;56125;52.242;4.756;2024-01-30T15:12:46;19.30;47.30
69054;DHT22;56125;52.242;4.756;2024-01-30T15:17:47;19.30;47.50
69054;DHT22;56125;52.242;4.756;2024-01-30T15:22:48;19.20;47.40
69054;DHT22;56125;52.242;4.756;2024-01-30T15:27:50;19.20;47.40
69054;DHT22;56125;52.242;4.756;2024-01-30T15:32:51;19.20;47.50
69054;DHT22;56125;52.242;4.756;2024-01-30T15:37:52;19.10;47.50
69054;DHT22;56125;52.242;4.756;2024-01-30T15:42:53;19.10;47.40
69054;DHT22;56125;52.242;4.756;2024-01-30T15:47:54;19.10;47.40
69054;DHT22;56125;52.242;4.756;2024-01-30T15:52:55;19.00;47.40
69054;DHT22;56125;52.242;4.756;2024-01-30T15:57:56;19.00;47.40
69054;DHT22;56125;52.242;4.756;2024-01-30T16:02:57;19.00;47.40
69054;DHT22;56125;52.242;4.756;2024-01-30T16:07:59;18.90;47.40
69054;DHT22;56125;52.242;4.756;2024-01-30T16:13:00;18.90;47.50
69054;DHT22;56125;52.242;4.756;2024-01-30T16:18:01;18.90;47.50
69054;DHT22;56125;52.242;4.756;2024-01-30T16:23:02;18.90;47.80
69054;DHT22;56125;52.242;4.756;2024-01-30T16:28:03;18.80;47.60
69054;DHT22;56125;52.242;4.756;2024-01-30T16:33:04;19.20;47.80
69054;DHT22;56125;52.242;4.756;2024-01-30T16:38:05;18.80;47.60
69054;DHT22;56125;52.242;4.756;2024-01-30T16:43:07;18.70;47.60
69054;DHT22;56125;52.242;4.756;2024-01-30T16:48:08;18.70;47.60
69054;DHT22;56125;52.242;4.756;2024-01-30T16:53:11;18.70;47.60
69054;DHT22;56125;52.242;4.756;2024-01-30T16:58:12;18.70;47.60
69054;DHT22;56125;52.242;4.756;2024-01-30T17:03:13;18.70;47.70
69054;DHT22;56125;52.242;4.756;2024-01-30T17:08:14;18.60;47.60
69054;DHT22;56125;52.242;4.756;2024-01-30T17:13:15;18.60;47.60
69054;DHT22;56125;52.242;4.756;2024-01-30T17:18:17;18.60;47.70
69054;DHT22;56125;52.242;4.756;2024-01-30T17:23:19;18.60;47.80
69054;DHT22;56125;52.242;4.756;2024-01-30T17:28:21;18.50;47.80
69054;DHT22;56125;52.242;4.756;2024-01-30T17:33:22;18.50;47.80
69054;DHT22;56125;52.242;4.756;2024-01-30T17:38:23;18.50;48.80
69054;DHT22;56125;52.242;4.756;2024-01-30T17:43:24;18.50;49.40
69054;DHT22;56125;52.242;4.756;2024-01-30T17:48:25;18.50;48.80
69054;DHT22;56125;52.242;4.756;2024-01-30T17:53:26;18.50;49.10
69054;DHT22;56125;52.242;4.756;2024-01-30T17:58:27;18.50;49.30
69054;DHT22;56125;52.242;4.756;2024-01-30T18:03:29;18.50;48.80
69054;DHT22;56125;52.242;4.756;2024-01-30T18:08:32;18.50;49.00
69054;DHT22;56125;52.242;4.756;2024-01-30T18:13:33;18.50;49.50
69054;DHT22;56125;52.242;4.756;2024-01-30T18:18:35;18.50;50.30
69054;DHT22;56125;52.242;4.756;2024-01-30T18:23:36;18.50;50.20
69054;DHT22;56125;52.242;4.756;2024-01-30T18:28:37;18.50;50.20
69054;DHT22;56125;52.242;4.756;2024-01-30T18:33:39;18.50;50.30
69054;DHT22;56125;52.242;4.756;2024-01-30T18:38:41;18.60;50.30
69054;DHT22;56125;52.242;4.756;2024-01-30T18:43:43;18.60;50.20
69054;DHT22;56125;52.242;4.756;2024-01-30T18:48:44;18.50;50.20
69054;DHT22;56125;52.242;4.756;2024-01-30T18:53:46;18.50;50.00
69054;DHT22;56125;52.242;4.756;2024-01-30T18:58:48;19.10;50.50
69054;DHT22;56125;52.242;4.756;2024-01-30T19:03:49;18.50;50.00
69054;DHT22;56125;52.242;4.756;2024-01-30T19:08:50;18.50;49.90
69054;DHT22;56125;52.242;4.756;2024-01-30T19:13:51;18.50;50.00
69054;DHT22;56125;52.242;4.756;2024-01-30T19:18:52;18.30;49.70
69054;DHT22;56125;52.242;4.756;2024-01-30T19:23:53;18.50;49.90
69054;DHT22;56125;52.242;4.756;2024-01-30T19:28:56;18.50;50.00
69054;DHT22;56125;52.242;4.756;2024-01-30T19:33:58;18.50;49.80
69054;DHT22;56125;52.242;4.756;2024-01-30T19:38:59;18.50;49.90
69054;DHT22;56125;52.242;4.756;2024-01-30T19:44:00;18.50;49.70
69054;DHT22;56125;52.242;4.756;2024-01-30T19:49:01;18.50;49.60
69054;DHT22;56125;52.242;4.756;2024-01-30T19:54:02;17.90;49.00
69054;DHT22;56125;52.242;4.756;2024-01-30T19:59:03;18.50;49.40
69054;DHT22;56125;52.242;4.756;2024-01-30T20:04:04;18.50;49.60
69054;DHT22;56125;52.242;4.756;2024-01-30T20:09:07;18.50;49.60
69054;DHT22;56125;52.242;4.756;2024-01-30T20:14:09;18.50;49.50
69054;DHT22;56125;52.242;4.756;2024-01-30T20:19:10;18.50;49.60
69054;DHT22;56125;52.242;4.756;2024-01-30T20:24:11;18.50;49.40
69054;DHT22;56125;52.242;4.756;2024-01-30T20:29:12;18.50;49.50
69054;DHT22;56125;52.242;4.756;2024-01-30T20:34:13;18.50;49.30
69054;DHT22;56125;52.242;4.756;2024-01-30T20:39:14;18.50;49.30
69054;DHT22;56125;52.242;4.756;2024-01-30T20:44:16;18.50;49.20
69054;DHT22;56125;52.242;4.756;2024-01-30T20:49:19;18.50;49.10
69054;DHT22;56125;52.242;4.756;2024-01-30T20:54:20;18.50;49.10
69054;DHT22;56125;52.242;4.756;2024-01-30T20:59:21;18.50;49.00
69054;DHT22;56125;52.242;4.756;2024-01-30T21:04:22;18.50;48.80
69054;DHT22;56125;52.242;4.756;2024-01-30T21:09:23;18.50;49.00
69054;DHT22;56125;52.242;4.756;2024-01-30T21:14:24;18.50;49.30
69054;DHT22;56125;52.242;4.756;2024-01-30T21:19:25;18.50;48.80
69054;DHT22;56125;52.242;4.756;2024-01-30T21:24:26;18.40;48.70
69054;DHT22;56125;52.242;4.756;2024-01-30T21:29:27;18.40;48.50
69054;DHT22;56125;52.242;4.756;2024-01-30T21:34:28;18.40;48.70
69054;DHT22;56125;52.242;4.756;2024-01-30T21:39:29;18.40;48.60
69054;DHT22;56125;52.242;4.756;2024-01-30T21:44:30;18.40;48.60
69054;DHT22;56125;52.242;4.756;2024-01-30T21:49:32;18.40;48.70
69054;DHT22;56125;52.242;4.756;2024-01-30T21:54:33;18.30;48.30
69054;DHT22;56125;52.242;4.756;2024-01-30T21:59:35;18.30;48.30
69054;DHT22;56125;52.242;4.756;2024-01-30T22:04:37;18.30;48.40
69054;DHT22;56125;52.242;4.756;2024-01-30T22:09:38;18.30;48.20
69054;DHT22;56125;52.242;4.756;2024-01-30T22:14:39;18.30;48.30
69054;DHT22;56125;52.242;4.756;2024-01-30T22:19:40;18.30;48.20
69054;DHT22;56125;52.242;4.756;2024-01-30T22:24:41;18.30;48.20
69054;DHT22;56125;52.242;4.756;2024-01-30T22:29:42;18.30;48.30
69054;DHT22;56125;52.242;4.756;2024-01-30T22:34:43;18.20;48.20
69054;DHT22;56125;52.242;4.756;2024-01-30T22:39:44;18.20;48.50
69054;DHT22;56125;52.242;4.756;2024-01-30T22:44:45;18.30;49.30
69054;DHT22;56125;52.242;4.756;2024-01-30T22:49:47;18.20;48.10
69054;DHT22;56125;52.242;4.756;2024-01-30T22:54:48;18.20;48.60
69054;DHT22;56125;52.242;4.756;2024-01-30T22:59:49;18.20;47.90
69054;DHT22;56125;52.242;4.756;2024-01-30T23:04:50;18.20;48.00
69054;DHT22;56125;52.242;4.756;2024-01-30T23:09:51;18.20;47.80
69054;DHT22;56125;52.242;4.756;2024-01-30T23:14:53;18.20;47.80
69054;DHT22;56125;52.242;4.756;2024-01-30T23:19:56;18.20;47.80
69054;DHT22;56125;52.242;4.756;2024-01-30T23:24:57;18.20;47.80
69054;DHT22;56125;52.242;4.756;2024-01-30T23:29:59;18.20;47.80
69054;DHT22;56125;52.242;4.756;2024-01-30T23:35:00;18.20;47.80
69054;DHT22;56125;52.242;4.756;2024-01-30T23:40:01;18.20;47.70
69054;DHT22;56125;52.242;4.756;2024-01-30T23:45:02;18.20;47.80
69054;DHT22;56125;52.242;4.756;2024-01-30T23:50:03;18.20;47.70
69054;DHT22;56125;52.242;4.756;2024-01-30T23:55:05;18.20;47.90
